• Join FlightAware (Why Join?)
  • Login
  • US Flag 
05:12AM EST


 

Airport Tracker/Info


-or-


 

Live Flight TrackerFlight Track Log ✈ N6GD ✈ 30-May-2014 ✈ KTPA - KLAX

Flight Track Log - Related Links

Times and Time Zones

All times are in EDT time to prevent confusion due to time zone crossing. See the N6GD flight status page for this flight to view local times or setup timezone preferences in your user account.

Time Position Orientation Groundspeed Altitude Reporting Facility
EDT Latitude Longitude Course Direction KTS MPH feet Rate Location/Type
03:22PM 27.8756 -82.5694 198° South 230 265 3,600  Level Miami Center
03:23PM 27.8383 -82.6400 239° Southwest 263 303 6,400 2,700 Climbing Miami Center
03:24PM 27.8069 -82.7183 246° West 271 312 9,200 2,520 Climbing Miami Center
03:25PM 27.7650 -82.8169 244° Southwest 292 336 11,700 2,040 Climbing Miami Center
03:26PM 27.7264 -82.9075 244° Southwest 318 366 13,500 1,800 Climbing Miami Center
03:27PM 27.7036 -83.0114 256° West 338 389 15,500 1,800 Climbing Miami Center
03:28PM 27.6831 -83.1172 258° West 343 395 17,200 1,500 Climbing Miami Center
03:29PM 27.6625 -83.2258 258° West 351 404 18,700 1,500 Climbing Miami Center
03:30PM 27.6383 -83.3383 256° West 367 422 20,300 1,500 Climbing Miami Center
03:31PM 27.6475 -83.4789 274° West 373 429 21,900 1,380 Climbing Miami Center
03:32PM 27.6656 -83.5989 280° West 385 443 23,200 1,140 Climbing Miami Center
03:33PM 27.6819 -83.7197 279° West 388 447 24,300 1,080 Climbing Miami Center
03:34PM 27.6997 -83.8444 279° West 402 463 25,500 1,260 Climbing Miami Center
03:35PM 27.7161 -83.9694 278° West 403 464 27,000 1,680 Climbing Miami Center
03:36PM 27.7328 -84.0922 279° West 398 458 29,000 1,680 Climbing Miami Center
03:37PM 27.7489 -84.2075 279° West 377 434 30,500 1,680 Climbing Miami Center
03:38PM 27.7669 -84.3450 278° West 371 427 32,500 1,500 Climbing Miami Center
03:39PM 27.7825 -84.4567 279° West 363 418 33,700 1,020 Climbing Miami Center
03:40PM 27.7964 -84.5708 278° West 364 419 34,700 960 Climbing Miami Center
03:41PM 27.8114 -84.6833 279° West 365 420 35,700 600 Climbing Miami Center
03:42PM 27.8253 -84.7981 278° West 365 420 36,000 120 Climbing Miami Center
03:43PM 27.8428 -84.9192 279° West 389 448 36,000 120 Level Miami Center
03:44PM 27.8556 -85.0667 276° West 394 453 36,300 480 Climbing Miami Center
03:45PM 27.8681 -85.1881 277° West 394 453 37,100 720 Climbing Miami Center
03:46PM 27.8794 -85.3083 276° West 388 447 37,800 420 Climbing Miami Center
03:48PM 27.8889 -85.4297 275° West 386 444 38,000 60 Climbing Miami Center
03:49PM 27.9006 -85.5858 275° West 393 452 38,000  Level Jacksonville Center
03:50PM 27.9125 -85.7131 276° West 391 450 38,000  Level Jacksonville Center
03:51PM 27.9242 -85.8400 276° West 405 466 38,000  Level Jacksonville Center
03:52PM 27.9358 -85.9672 276° West 405 466 38,000 -60 Level Jacksonville Center
03:53PM 27.9497 -86.0875 277° West 413 475 37,900 -60 Descending Jacksonville Center
03:54PM 27.9611 -86.2122 276° West 403 464 37,900  Level Jacksonville Center
03:55PM 27.9786 -86.3422 279° West 407 468 38,000  Climbing Jacksonville Center
03:56PM 27.9900 -86.4600 276° West 407 468 38,000  Level Jacksonville Center
03:57PM 28.0133 -86.5900 282° West 400 460 38,000  Level Jacksonville Center
03:58PM 28.0539 -86.7044 292° West 399 459 38,000  Level Jacksonville Center
03:59PM 28.0903 -86.8092 292° West 399 459 38,000  Level Jacksonville Center
04:00PM 28.1244 -86.9164 290° West 399 459 38,000  Level Jacksonville Center
04:01PM 28.1747 -87.0481 293° West 411 473 38,000  Level Jacksonville Center
04:01PM 28.2042 -87.1333 291° West 414 476 38,000  Level Houston Center
04:02PM 28.2464 -87.2567 291° West 417 480 38,000  Level Houston Center
04:03PM 28.2883 -87.3811 291° West 419 482 38,000  Level Houston Center
04:04PM 28.3294 -87.5044 291° West 419 482 38,000  Level Houston Center
04:06PM 28.3806 -87.6533 291° West 420 483 38,000  Level Houston Center
04:07PM 28.4217 -87.7772 291° West 420 483 38,000  Level Houston Center
04:08PM 28.4631 -87.9028 291° West 421 484 38,000  Level Houston Center
04:09PM 28.5036 -88.0233 291° West 423 487 38,000  Level Houston Center
04:10PM 28.5475 -88.1561 291° West 423 487 38,000  Level Houston Center
04:11PM 28.5886 -88.2806 291° West 423 487 38,000  Level Houston Center
04:12PM 28.6386 -88.4297 291° West 422 486 38,000  Level Houston Center
04:13PM 28.6764 -88.5553 289° West 422 486 38,000  Level Houston Center
04:14PM 28.7033 -88.6861 283° West 423 487 38,000  Level Houston Center
04:15PM 28.7314 -88.8167 284° West 423 487 38,000  Level Houston Center
04:16PM 28.7592 -88.9478 284° West 424 488 38,000  Level Houston Center
04:17PM 28.7872 -89.0800 284° West 428 493 38,000  Level Houston Center
04:18PM 28.8206 -89.2383 284° West 428 493 38,000  Level Houston Center
04:19PM 28.8478 -89.3692 283° West 427 491 38,000  Level Houston Center
04:20PM 28.8756 -89.5003 284° West 426 490 38,000  Level Houston Center
04:21PM 28.9031 -89.6331 283° West 427 491 38,000  Level Houston Center
04:22PM 28.9297 -89.7664 283° West 432 497 38,000  Level Houston Center
04:23PM 28.9578 -89.8978 284° West 428 493 38,000  Level Houston Center
04:24PM 28.9897 -90.0567 283° West 428 493 38,000  Level Houston Center
04:25PM 29.0164 -90.1878 283° West 428 493 38,000  Level Houston Center
04:26PM 29.0433 -90.3192 283° West 427 491 38,000  Level Houston Center
04:27PM 29.0703 -90.4517 283° West 429 494 38,000  Level Houston Center
04:28PM 29.0972 -90.5853 283° West 429 494 38,000  Level Houston Center
04:29PM 29.1239 -90.7181 283° West 430 495 38,000  Level Houston Center
04:30PM 29.1558 -90.8792 283° West 433 498 38,000  Level Houston Center
04:31PM 29.1817 -91.0131 282° West 433 498 38,000  Level Houston Center
04:32PM 29.2078 -91.1461 283° West 432 497 38,000  Level Houston Center
04:33PM 29.2383 -91.2781 285° West 431 496 38,000  Level Houston Center
04:35PM 29.2689 -91.4097 285° West 429 494 38,000  Level Houston Center
04:36PM 29.3006 -91.5419 285° West 429 494 38,000  Level Houston Center
04:37PM 29.3361 -91.7000 285° West 429 494 38,000  Level Houston Center
04:38PM 29.3642 -91.8200 285° West 429 494 38,000  Level Houston Center
04:39PM 29.3953 -91.9522 285° West 429 494 38,000  Level Houston Center
04:40PM 29.4308 -92.1114 284° West 429 494 38,000 -60 Level Houston Center
04:41PM 29.4606 -92.2431 285° West 428 493 37,900  Descending Houston Center
04:42PM 29.4908 -92.3756 285° West 429 494 38,000  Climbing Houston Center
04:43PM 29.5211 -92.5092 285° West 429 494 38,000  Level Houston Center
04:44PM 29.5506 -92.6422 284° West 430 495 38,000  Level Houston Center
04:45PM 29.5861 -92.8028 284° West 430 495 38,000  Level Houston Center
04:46PM 29.6164 -92.9369 285° West 431 496 38,000  Level Houston Center
04:47PM 29.6453 -93.0714 284° West 432 497 38,000  Level Houston Center
04:48PM 29.6742 -93.2056 284° West 431 496 38,000  Level Houston Center
04:49PM 29.7042 -93.3394 284° West 431 496 38,000  Level Houston Center
04:50PM 29.7331 -93.4739 284° West 431 496 38,000  Level Houston Center
04:51PM 29.7619 -93.6089 284° West 432 497 38,000  Level Houston Center
04:52PM 29.7967 -93.7700 284° West 432 497 38,000  Level Houston Center
04:53PM 29.8239 -93.9039 283° West 428 493 38,000  Level Houston Center
04:54PM 29.8311 -94.0419 273° West 429 494 38,000  Level Houston Center
04:55PM 29.8422 -94.1869 275° West 429 494 38,000  Level Houston Center
04:56PM 29.8553 -94.3225 276° West 430 495 38,000  Level Houston Center
04:57PM 29.8825 -94.4544 283° West 428 493 38,000  Level Houston Center
04:58PM 29.9103 -94.5861 284° West 427 491 38,000  Level Houston Center
04:59PM 29.9442 -94.7458 284° West 428 493 38,000  Level Houston Center
05:00PM 29.9725 -94.8786 284° West 428 493 38,000  Level Houston Center
05:01PM 30.0006 -95.0119 284° West 429 494 38,000  Level Houston Center
05:02PM 30.0278 -95.1456 283° West 429 494 38,000  Level Houston Center
05:04PM 30.0550 -95.2800 283° West 431 496 38,000  Level Houston Center
05:05PM 30.0889 -95.4400 284° West 431 496 38,000  Level Houston Center
05:06PM 30.1156 -95.5733 283° West 431 496 38,000  Level Houston Center
05:07PM 30.1425 -95.7078 283° West 431 496 38,000  Level Houston Center
05:08PM 30.1689 -95.8403 283° West 428 493 38,000  Level Houston Center
05:09PM 30.1956 -95.9742 283° West 428 493 38,000  Level Houston Center
05:10PM 30.2275 -96.1322 283° West 429 494 38,000  Level Houston Center
05:11PM 30.2547 -96.2672 283° West 429 494 38,000  Level Houston Center
05:12PM 30.2800 -96.4019 282° West 430 495 38,000  Level Houston Center
05:13PM 30.3067 -96.5367 283° West 431 496 38,000  Level Houston Center
05:14PM 30.3378 -96.6986 283° West 431 496 38,000  Level Houston Center
05:15PM 30.3642 -96.8350 283° West 433 498 38,000  Level Houston Center
05:16PM 30.3908 -96.9689 283° West 433 498 38,000  Level Houston Center
05:17PM 30.4164 -97.1042 282° West 433 498 38,000  Level Houston Center
05:18PM 30.4417 -97.2403 282° West 433 498 38,000  Level Houston Center
05:19PM 30.4728 -97.4033 283° West 433 498 38,000  Level Houston Center
05:20PM 30.4986 -97.5392 282° West 433 498 38,000 -60 Level Houston Center
05:21PM 30.5239 -97.6739 282° West 433 498 37,900  Descending Houston Center
05:22PM 30.5494 -97.8092 282° West 432 497 38,000  Climbing Houston Center
05:23PM 30.5739 -97.9450 282° West 432 497 38,000  Level Houston Center
05:24PM 30.5981 -98.0806 282° West 432 497 38,000  Level Houston Center
05:25PM 30.6275 -98.2442 282° West 432 497 38,000  Level Houston Center
05:26PM 30.6531 -98.3789 282° West 431 496 38,000  Level Houston Center
05:27PM 30.6764 -98.5156 281° West 431 496 38,000  Level Houston Center
05:28PM 30.7008 -98.6478 282° West 431 496 38,000  Level Houston Center
05:29PM 30.7306 -98.8108 282° West 431 496 38,000  Level Houston Center
05:30PM 30.7533 -98.9486 281° West 432 497 38,000  Level Houston Center
05:32PM 30.7781 -99.0867 282° West 435 501 38,000  Level Houston Center
05:33PM 30.8008 -99.2228 281° West 434 499 38,000  Level Houston Center
05:34PM 30.8247 -99.3592 282° West 434 499 38,000  Level Houston Center
05:35PM 30.8522 -99.5225 281° West 434 499 38,000  Level Houston Center
05:36PM 30.8761 -99.6583 282° West 434 499 38,000  Level Houston Center
05:37PM 30.8992 -99.7939 281° West 432 497 38,000  Level Houston Center
05:38PM 30.9217 -99.9286 281° West 431 496 38,000  Level Houston Center
05:39PM 30.9436 -100.0611 281° West 424 488 38,000  Level Houston Center
05:40PM 30.9692 -100.2183 281° West 419 482 38,000  Level Houston Center
05:41PM 30.9903 -100.3469 281° West 412 474 38,000  Level Houston Center
05:42PM 31.0117 -100.4758 281° West 412 474 38,000  Level Houston Center
05:43PM 31.0325 -100.6044 281° West 410 472 38,000  Level Houston Center
05:44PM 31.0539 -100.7322 281° West 408 470 38,000  Level Houston Center
05:45PM 31.0772 -100.8875 280° West 408 470 38,000  Level Houston Center
05:46PM 31.0986 -101.0167 281° West 408 470 38,000  Level Houston Center
05:47PM 31.1178 -101.1450 280° West 407 468 38,000  Level Houston Center
05:48PM 31.1386 -101.2728 281° West 405 466 38,000  Level Houston Center
05:49PM 31.1589 -101.4131 280° West 405 466 38,000  Level Houston Center
05:50PM 31.1783 -101.5411 280° West 405 466 38,000  Level Houston Center
05:51PM 31.1989 -101.6686 281° West 402 463 38,000  Level Houston Center
05:52PM 31.2183 -101.7964 280° West 402 463 38,000  Level Houston Center
05:53PM 31.2411 -101.9461 280° West 403 464 38,000  Level Albuquerque Center
05:54PM 31.2611 -102.0769 280° West 401 461 38,000  Level Houston Center
05:55PM 31.2792 -102.1939 280° West 400 460 38,000  Level Houston Center
05:56PM 31.3019 -102.3469 280° West 400 460 38,000  Level Houston Center
05:57PM 31.3178 -102.4789 278° West 406 467 38,000  Level Houston Center
05:58PM 31.3367 -102.6064 280° West 405 466 38,000  Level Houston Center
05:59PM 31.3544 -102.7317 279° West 401 461 38,000  Level Houston Center
06:00PM 31.3722 -102.8592 279° West 399 459 38,000  Level Houston Center
06:02PM 31.3911 -102.9878 280° West 399 459 38,000  Level Houston Center
06:03PM 31.4117 -103.1417 279° West 399 459 38,000  Level Houston Center
06:04PM 31.4286 -103.2692 279° West 399 459 38,000  Level Houston Center
06:05PM 31.4483 -103.3975 280° West 398 458 38,000  Level Albuquerque Center
06:06PM 31.4664 -103.5267 279° West 399 459 38,000  Level Albuquerque Center
06:07PM 31.4836 -103.6550 279° West 399 459 38,000 -60 Level Albuquerque Center
06:08PM 31.5050 -103.8092 279° West 399 459 37,900  Descending Albuquerque Center
06:09PM 31.5211 -103.9381 278° West 399 459 38,000  Climbing Albuquerque Center
06:10PM 31.5386 -104.0681 279° West 400 460 38,000  Level Albuquerque Center
06:11PM 31.5558 -104.1978 279° West 402 463 38,000  Level Albuquerque Center
06:12PM 31.5731 -104.3278 279° West 402 463 38,000  Level Albuquerque Center
06:13PM 31.5886 -104.4561 278° West 403 464 38,000  Level Albuquerque Center
06:14PM 31.6253 -104.6053 286° West 401 461 38,000  Level Albuquerque Center
06:15PM 31.6614 -104.7294 289° West 400 460 38,000  Level Albuquerque Center
06:16PM 31.6947 -104.8511 288° West 395 455 38,000  Level Albuquerque Center
06:17PM 31.7278 -104.9736 288° West 394 453 38,000  Level Albuquerque Center
06:18PM 31.7603 -105.0972 287° West 395 455 38,000  Level Albuquerque Center
06:19PM 31.7889 -105.2222 285° West 395 455 38,000  Level Albuquerque Center
06:20PM 31.8233 -105.3692 285° West 395 455 38,000  Level Albuquerque Center
06:21PM 31.8542 -105.4925 286° West 394 453 38,000  Level Albuquerque Center
06:22PM 31.8889 -105.6258 287° West 394 453 38,000  Level Albuquerque Center
06:23PM 31.9197 -105.7486 287° West 394 453 38,000  Level Albuquerque Center
06:24PM 31.9531 -105.8817 286° West 395 455 38,000  Level Albuquerque Center
06:25PM 31.9811 -105.9936 286° West 395 455 38,000  Level Albuquerque Center
06:26PM 32.0119 -106.1172 286° West 395 455 38,000  Level Albuquerque Center
06:27PM 32.0431 -106.2408 287° West 395 455 38,000  Level Albuquerque Center
06:28PM 32.0797 -106.3903 286° West 395 455 38,000  Level Albuquerque Center
06:29PM 32.1092 -106.5131 286° West 394 453 38,000  Level Albuquerque Center
06:30PM 32.1394 -106.6369 286° West 393 452 38,000  Level Albuquerque Center
06:31PM 32.1683 -106.7600 286° West 392 451 38,000  Level Albuquerque Center
06:33PM 32.2006 -106.8928 286° West 390 449 38,000  Level Albuquerque Center
06:34PM 32.2322 -107.0247 286° West 390 449 38,000  Level Albuquerque Center
06:35PM 32.2617 -107.1472 286° West 390 449 38,000  Level Albuquerque Center
06:36PM 32.2886 -107.2783 284° West 393 452 38,000  Level Albuquerque Center
06:37PM 32.3183 -107.4008 286° West 392 451 38,000  Level Albuquerque Center
06:38PM 32.3469 -107.5294 285° West 391 450 38,000  Level Albuquerque Center
06:39PM 32.3758 -107.6542 285° West 390 449 38,000  Level Albuquerque Center
06:40PM 32.4047 -107.7767 286° West 389 448 38,000  Level Albuquerque Center
06:41PM 32.4317 -107.9000 285° West 389 448 38,000  Level Albuquerque Center
06:42PM 32.4592 -108.0156 286° West 389 448 38,000  Level Albuquerque Center
06:43PM 32.4933 -108.1631 285° West 389 448 38,000  Level Albuquerque Center
06:44PM 32.5244 -108.2861 287° West 389 448 38,000  Level Albuquerque Center
06:45PM 32.5561 -108.4081 287° West 389 448 38,000  Level Albuquerque Center
06:46PM 32.5872 -108.5294 287° West 389 448 38,000  Level Albuquerque Center
06:47PM 32.6183 -108.6511 287° West 388 447 38,000  Level Albuquerque Center
06:48PM 32.6492 -108.7739 287° West 388 447 38,000  Level Albuquerque Center
06:49PM 32.6789 -108.8967 286° West 388 447 38,000  Level Albuquerque Center
06:50PM 32.7167 -109.0239 289° West 393 452 38,000  Level Albuquerque Center
06:51PM 32.7483 -109.1717 284° West 392 451 38,000  Level Albuquerque Center
06:52PM 32.7792 -109.2964 286° West 392 451 38,000  Level Albuquerque Center
06:53PM 32.8111 -109.4222 287° West 392 451 38,000  Level Albuquerque Center
06:54PM 32.8414 -109.5467 286° West 392 451 38,000  Level Albuquerque Center
06:55PM 32.8722 -109.6697 287° West 392 451 38,000  Level Albuquerque Center
06:56PM 32.9022 -109.7944 286° West 392 451 38,000  Level Albuquerque Center
06:57PM 32.9336 -109.9181 287° West 392 451 38,000  Level Albuquerque Center
06:58PM 32.9692 -110.0667 286° West 391 450 38,000  Level Albuquerque Center
06:59PM 32.9989 -110.1911 286° West 391 450 38,000  Level Albuquerque Center
07:00PM 33.0283 -110.3175 286° West 392 451 38,000  Level Albuquerque Center
07:01PM 33.0583 -110.4417 286° West 392 451 38,000  Level Albuquerque Center
07:02PM 33.0881 -110.5675 286° West 392 451 38,000  Level Albuquerque Center
07:03PM 33.1214 -110.7097 286° West 393 452 38,000  Level Albuquerque Center
07:04PM 33.1500 -110.8350 285° West 393 452 38,000  Level Albuquerque Center
07:05PM 33.1800 -110.9611 286° West 393 452 38,000  Level Albuquerque Center
07:07PM 33.2089 -111.0842 286° West 388 447 38,000  Level Albuquerque Center
07:08PM 33.2364 -111.2106 285° West 388 447 38,000  Level Albuquerque Center
07:09PM 33.2661 -111.3347 286° West 389 448 38,000  Level Albuquerque Center
07:10PM 33.2939 -111.4597 285° West 390 449 38,000  Level Albuquerque Center
07:11PM 33.3222 -111.5858 285° West 391 450 38,000  Level Albuquerque Center
07:12PM 33.3558 -111.7358 285° West 390 449 38,000  Level Albuquerque Center
07:13PM 33.3836 -111.8606 285° West 390 449 38,000  Level Albuquerque Center
07:14PM 33.4111 -111.9853 285° West 390 449 38,000  Level Albuquerque Center
07:15PM 33.4383 -112.1097 285° West 389 448 38,000  Level Albuquerque Center
07:16PM 33.4661 -112.2336 285° West 389 448 38,000  Level Albuquerque Center
07:17PM 33.4936 -112.3600 285° West 389 448 38,000  Level Albuquerque Center
07:18PM 33.5208 -112.4847 285° West 388 447 38,000  Level Albuquerque Center
07:19PM 33.5531 -112.6300 285° West 388 447 38,000  Level Albuquerque Center
07:20PM 33.5792 -112.7547 284° West 388 447 38,000  Level Albuquerque Center
07:21PM 33.6056 -112.8781 284° West 387 445 38,000  Level Albuquerque Center
07:22PM 33.6322 -113.0028 284° West 387 445 38,000  Level Albuquerque Center
07:23PM 33.6597 -113.1333 284° West 387 445 38,000  Level Albuquerque Center
07:24PM 33.6867 -113.2589 284° West 387 445 38,000  Level Albuquerque Center
07:25PM 33.7131 -113.3839 284° West 387 445 38,000  Level Albuquerque Center
07:26PM 33.7383 -113.5089 284° West 387 445 38,000  Level Albuquerque Center
07:27PM 33.7650 -113.6347 284° West 387 445 38,000  Level Albuquerque Center
07:28PM 33.7906 -113.7592 284° West 387 445 38,000  Level Albuquerque Center
07:29PM 33.8350 -113.9067 290° West 389 448 38,000  Level Albuquerque Center
07:30PM 33.8853 -114.0458 294° West 394 453 38,000  Level Los Angeles Center
07:31PM 33.9106 -114.1711 284° West 392 451 38,000  Level Los Angeles Center
07:32PM 33.9269 -114.2967 279° West 384 442 38,000  Level Los Angeles Center
07:33PM 33.9469 -114.4492 279° West 384 442 38,000  Level Los Angeles Center
07:34PM 33.9631 -114.5764 279° West 385 443 38,000  Level Los Angeles Center
07:36PM 33.9797 -114.7017 279° West 385 443 38,000  Level Los Angeles Center
07:37PM 33.9950 -114.8272 278° West 382 440 38,000  Level Los Angeles Center
07:38PM 34.0111 -114.9511 279° West 381 438 38,000  Level Los Angeles Center
07:39PM 34.0297 -115.1019 279° West 381 438 38,000  Level Los Angeles Center
07:40PM 34.0461 -115.2267 279° West 380 437 38,000  Level Los Angeles Center
07:41PM 34.0619 -115.3503 279° West 380 437 38,000  Level Los Angeles Center
07:42PM 34.0767 -115.4761 278° West 379 436 38,000 -120 Level Los Angeles Center
07:43PM 34.0919 -115.6003 278° West 379 436 37,800 -1,260 Descending Los Angeles Center
07:44PM 34.1089 -115.7494 278° West 378 435 35,500 -1,860 Descending Los Angeles Center
07:45PM 34.0972 -115.8728 264° West 376 433 34,000 -1,440 Descending Los Angeles Center
07:46PM 34.0800 -115.9883 260° West 359 413 32,600 -1,380 Descending Los Angeles Center
07:47PM 34.0625 -116.1094 260° West 366 421 31,200 -1,380 Descending Los Angeles Center
07:48PM 34.0422 -116.2342 259° West 376 433 29,800 -1,080 Descending Los Angeles Center
07:49PM 34.0244 -116.3597 260° West 380 437 29,000 -420 Descending Los Angeles Center
07:50PM 34.0022 -116.5153 260° West 394 453 29,000 -840 Level Los Angeles Center
07:51PM 33.9917 -116.6447 264° West 394 453 27,300 -2,280 Descending Los Angeles Center
07:52PM 33.9814 -116.7686 264° West 383 441 24,400 -2,820 Descending Los Angeles Center
07:53PM 33.9883 -116.8761 274° West 351 404 21,500 -2,220 Descending Los Angeles Center
07:54PM 34.0047 -116.9792 281° West 330 380 19,900 -2,220 Descending Los Angeles Center
07:55PM 33.9650 -117.0883 246° West 307 353 17,000 -1,920 Descending Los Angeles Center
07:56PM 33.9475 -117.1869 258° West 303 349 16,000 -1,200 Descending Los Angeles Center
07:57PM 33.9403 -117.2878 265° West 304 350 14,600 -1,320 Descending Los Angeles Center
07:58PM 33.9367 -117.3892 268° West 304 350 13,300 -1,260 Descending Los Angeles Center
07:59PM 33.9714 -117.4861 293° West 309 356 12,000 -1,260 Descending Los Angeles Center
08:00PM 34.0053 -117.5803 293° West 309 356 10,700 -1,020 Descending Los Angeles Center
08:01PM 34.0092 -117.6947 272° West 295 339 9,900 -840 Descending Los Angeles Center
08:02PM 33.9994 -117.7839 263° West 278 320 9,000 -1,260 Descending Los Angeles Center
08:03PM 33.9906 -117.8792 264° West 278 320 7,400 -1,260 Descending Los Angeles Center
08:05PM 33.9833 -117.9667 264° West 227 261 6,400 -1,140 Descending Southern California TRACON
08:06PM 33.9667 -118.0500 256° West 254 292 5,100 -1,080 Descending Southern California TRACON
08:07PM 33.9667 -118.1333 270° West 250 288 4,300 -840 Descending Southern California TRACON
08:08PM 33.9500 -118.2000 253° West 191 220 3,500 -900 Descending Southern California TRACON
08:09PM 33.9486 -118.2675 269° West 190 219 2,400 -1,020 Descending Los Angeles Center
08:10PM 33.9450 -118.3167 265° West 167 192 1,400 -900 Descending Los Angeles Center
08:11PM 33.9411 -118.3575 263° West 138 159 600 -660 Descending Los Angeles Center
08:12PM 33.9369 -118.4025 264° West 130 150 100 -540 Descending Los Angeles Center
08:14PM 33.9333 -118.4000 270° West  Level FlightAware Approximate